sensor_id;sensor_type;location;lat;lon;timestamp;temperature;humidity
13665;DHT22;6905;50.770;6.730;2022-12-26T05:13:37;11.80;99.90
13665;DHT22;6905;50.770;6.730;2022-12-26T07:23:24;10.60;99.90
13665;DHT22;6905;50.770;6.730;2022-12-26T07:26:11;10.60;99.90
13665;DHT22;6905;50.770;6.730;2022-12-26T08:20:09;10.80;99.90
13665;DHT22;6905;50.770;6.730;2022-12-26T08:23:01;10.90;99.90
13665;DHT22;6905;50.770;6.730;2022-12-26T08:26:00;10.90;99.90
13665;DHT22;6905;50.770;6.730;2022-12-26T08:56:03;11.20;99.90
13665;DHT22;6905;50.770;6.730;2022-12-26T08:58:46;11.30;99.90
13665;DHT22;6905;50.770;6.730;2022-12-26T09:01:24;11.30;99.90
13665;DHT22;6905;50.770;6.730;2022-12-26T09:04:07;11.30;99.90
13665;DHT22;6905;50.770;6.730;2022-12-26T09:06:37;11.40;99.90
13665;DHT22;6905;50.770;6.730;2022-12-26T09:09:24;11.40;99.90
13665;DHT22;6905;50.770;6.730;2022-12-26T09:12:19;11.40;99.90
13665;DHT22;6905;50.770;6.730;2022-12-26T09:15:06;11.40;99.90
13665;DHT22;6905;50.770;6.730;2022-12-26T09:17:48;11.50;99.90
13665;DHT22;6905;50.770;6.730;2022-12-26T09:20:38;11.60;99.90
13665;DHT22;6905;50.770;6.730;2022-12-26T12:17:49;12.00;99.90
13665;DHT22;6905;50.770;6.730;2022-12-26T12:59:37;11.70;99.90
13665;DHT22;6905;50.770;6.730;2022-12-26T14:05:39;9.90;99.90
13665;DHT22;6905;50.770;6.730;2022-12-26T14:08:43;9.90;99.90
13665;DHT22;6905;50.770;6.730;2022-12-26T14:11:23;9.90;99.90
13665;DHT22;6905;50.770;6.730;2022-12-26T14:14:02;9.90;99.90
13665;DHT22;6905;50.770;6.730;2022-12-26T14:16:46;9.90;99.90
13665;DHT22;6905;50.770;6.730;2022-12-26T14:19:44;9.90;99.90
13665;DHT22;6905;50.770;6.730;2022-12-26T14:22:28;9.90;99.90
13665;DHT22;6905;50.770;6.730;2022-12-26T14:25:21;9.90;99.90
13665;DHT22;6905;50.770;6.730;2022-12-26T14:28:16;9.90;99.90
13665;DHT22;6905;50.770;6.730;2022-12-26T14:31:04;9.90;99.90
13665;DHT22;6905;50.770;6.730;2022-12-26T14:33:50;9.90;99.90
13665;DHT22;6905;50.770;6.730;2022-12-26T14:36:34;9.90;99.90
13665;DHT22;6905;50.770;6.730;2022-12-26T16:08:33;8.40;99.90
13665;DHT22;6905;50.770;6.730;2022-12-26T16:11:28;8.40;99.90
13665;DHT22;6905;50.770;6.730;2022-12-26T16:17:10;8.30;99.90
13665;DHT22;6905;50.770;6.730;2022-12-26T16:20:16;8.30;99.90
13665;DHT22;6905;50.770;6.730;2022-12-26T16:22:58;8.20;99.90
13665;DHT22;6905;50.770;6.730;2022-12-26T16:25:49;8.20;99.90
13665;DHT22;6905;50.770;6.730;2022-12-26T16:28:34;8.20;99.90
13665;DHT22;6905;50.770;6.730;2022-12-26T16:31:22;8.10;99.90
13665;DHT22;6905;50.770;6.730;2022-12-26T16:34:05;8.10;99.90
13665;DHT22;6905;50.770;6.730;2022-12-26T16:36:47;8.00;99.90
13665;DHT22;6905;50.770;6.730;2022-12-26T17:10:24;7.70;99.90
13665;DHT22;6905;50.770;6.730;2022-12-26T17:13:08;7.70;99.90
13665;DHT22;6905;50.770;6.730;2022-12-26T17:16:00;7.60;99.90
13665;DHT22;6905;50.770;6.730;2022-12-26T17:18:50;7.60;99.90
13665;DHT22;6905;50.770;6.730;2022-12-26T17:21:33;7.50;99.90
13665;DHT22;6905;50.770;6.730;2022-12-26T17:24:24;7.40;99.90
13665;DHT22;6905;50.770;6.730;2022-12-26T17:27:25;7.40;99.90
13665;DHT22;6905;50.770;6.730;2022-12-26T17:33:13;7.30;99.90
13665;DHT22;6905;50.770;6.730;2022-12-26T17:36:00;7.20;99.90
13665;DHT22;6905;50.770;6.730;2022-12-26T17:38:33;7.10;99.90
13665;DHT22;6905;50.770;6.730;2022-12-26T17:41:16;7.00;99.90
13665;DHT22;6905;50.770;6.730;2022-12-26T17:44:01;7.00;99.90
13665;DHT22;6905;50.770;6.730;2022-12-26T17:46:50;7.00;99.90
13665;DHT22;6905;50.770;6.730;2022-12-26T17:49:32;6.90;99.90
